createdAt,value
2022-12-03T00:01:44.499Z,0.30
2022-12-03T00:04:17.091Z,-0.15
2022-12-03T00:06:49.270Z,-0.32
2022-12-03T00:09:55.992Z,-0.13
2022-12-03T00:12:28.589Z,-0.32
2022-12-03T00:15:03.871Z,-0.34
2022-12-03T00:17:36.210Z,-0.19
2022-12-03T00:20:10.712Z,-0.18
2022-12-03T00:22:42.751Z,-0.54
2022-12-03T00:25:15.053Z,0.15
2022-12-03T00:27:48.245Z,-0.09
2022-12-03T00:30:23.510Z,-0.02
2022-12-03T00:32:55.691Z,-0.21
2022-12-03T00:35:28.230Z,-0.01
2022-12-03T00:38:00.436Z,-0.37
2022-12-03T00:40:32.954Z,-0.39
2022-12-03T00:43:05.191Z,-0.33
2022-12-03T00:45:40.312Z,-0.04
2022-12-03T00:48:20.076Z,-0.37
2022-12-03T00:50:52.458Z,-0.14
2022-12-03T00:53:24.306Z,-0.05
2022-12-03T00:55:55.837Z,-0.09
2022-12-03T00:58:27.537Z,-0.18
2022-12-03T01:01:02.303Z,0.02
2022-12-03T01:03:33.821Z,-0.06
2022-12-03T01:06:05.932Z,-0.28
2022-12-03T01:08:37.580Z,-0.28
2022-12-03T01:11:30.904Z,-0.33
2022-12-03T01:14:02.452Z,-0.10
2022-12-03T01:16:37.887Z,-0.18
2022-12-03T01:19:11.045Z,-0.17
2022-12-03T01:21:43.099Z,-0.07
2022-12-03T01:24:15.308Z,-0.45
2022-12-03T01:26:47.877Z,0.25
2022-12-03T01:29:19.541Z,0.06
2022-12-03T01:32:07.286Z,0.38
2022-12-03T01:34:38.871Z,0.42
2022-12-03T01:37:10.948Z,-0.17
2022-12-03T01:39:44.026Z,0.04
2022-12-03T01:42:19.875Z,0.20
2022-12-03T01:44:54.134Z,0.11
2022-12-03T01:47:33.439Z,-0.04
2022-12-03T01:50:08.945Z,-0.33
2022-12-03T01:52:42.575Z,-0.37
2022-12-03T01:55:22.558Z,-0.22
2022-12-03T01:57:59.050Z,0.02
2022-12-03T02:00:32.099Z,-0.04
2022-12-03T02:03:14.584Z,-0.07
2022-12-03T02:05:46.406Z,-0.17
2022-12-03T02:08:35.424Z,-0.04
2022-12-03T02:11:10.995Z,0.15
2022-12-03T02:13:43.596Z,0.35
2022-12-03T02:16:15.385Z,0.28
2022-12-03T02:18:50.926Z,0.40
2022-12-03T02:21:29.592Z,0.26
2022-12-03T02:24:11.175Z,0.35
2022-12-03T02:26:45.535Z,0.24
2022-12-03T02:29:17.504Z,0.53
2022-12-03T02:31:49.625Z,0.40
2022-12-03T02:34:41.512Z,0.11
2022-12-03T02:37:16.367Z,0.00
2022-12-03T02:39:52.819Z,0.20
2022-12-03T02:42:39.634Z,-0.21
2022-12-03T02:45:16.245Z,-0.17
2022-12-03T02:47:50.511Z,-0.07
2022-12-03T02:50:25.525Z,-0.22
2022-12-03T02:56:08.770Z,0.26
2022-12-03T02:58:45.420Z,0.19
2022-12-03T03:01:41.489Z,0.17
2022-12-03T03:04:14.171Z,0.33
2022-12-03T03:06:47.280Z,0.45
2022-12-03T03:09:19.901Z,0.52
2022-12-03T03:11:51.908Z,0.24
2022-12-03T03:14:27.212Z,0.28
2022-12-03T03:16:59.198Z,0.37
2022-12-03T03:19:33.220Z,0.18
2022-12-03T03:22:05.140Z,0.35
2022-12-03T03:24:37.829Z,0.15
2022-12-03T03:27:10.281Z,0.11
2022-12-03T03:29:45.401Z,0.62
2022-12-03T03:32:17.471Z,0.59
2022-12-03T03:34:50.136Z,0.19
2022-12-03T03:37:22.410Z,0.20
2022-12-03T03:39:55.159Z,-0.40
2022-12-03T03:42:28.040Z,-0.38
2022-12-03T03:45:03.290Z,-0.06
2022-12-03T03:47:35.981Z,-0.08
2022-12-03T03:50:11.153Z,0.08
2022-12-03T03:52:45.010Z,-0.28
2022-12-03T03:55:19.379Z,-0.09
2022-12-03T03:57:52.273Z,0.17
2022-12-03T04:00:27.653Z,0.22
2022-12-03T04:02:59.917Z,0.22
2022-12-03T04:05:32.037Z,0.37
2022-12-03T04:08:04.879Z,0.22
2022-12-03T04:11:01.863Z,0.43
2022-12-03T04:13:33.741Z,0.34
2022-12-03T04:16:09.305Z,0.54
2022-12-03T04:18:47.739Z,0.59
2022-12-03T04:21:35.020Z,0.37
2022-12-03T04:24:08.575Z,0.02
2022-12-03T04:26:53.695Z,-0.04
2022-12-03T04:29:40.051Z,0.18
2022-12-03T04:32:27.461Z,0.01
2022-12-03T04:35:11.843Z,-0.37
2022-12-03T04:37:44.171Z,0.08
2022-12-03T04:40:28.699Z,-0.25
2022-12-03T04:43:00.919Z,-0.12
2022-12-03T04:45:33.091Z,0.25
2022-12-03T04:48:08.572Z,0.31
2022-12-03T04:50:39.949Z,0.27
2022-12-03T04:53:12.341Z,0.06
2022-12-03T04:55:44.273Z,0.18
2022-12-03T04:58:16.953Z,0.24
2022-12-03T05:00:49.107Z,-0.41
2022-12-03T05:03:24.758Z,-0.05
2022-12-03T05:05:56.961Z,0.30
2022-12-03T05:08:29.443Z,-0.09
2022-12-03T05:11:01.340Z,0.06
2022-12-03T05:13:33.651Z,-0.04
2022-12-03T05:16:05.666Z,0.04
2022-12-03T05:18:40.699Z,0.10
2022-12-03T05:21:12.730Z,-0.29
2022-12-03T05:23:45.612Z,0.04
2022-12-03T05:26:18.044Z,0.11
2022-12-03T05:28:50.030Z,0.01
2022-12-03T05:31:21.526Z,-0.20
2022-12-03T05:33:58.790Z,-0.11
2022-12-03T05:36:33.531Z,-0.33
2022-12-03T05:39:05.120Z,0.01
2022-12-03T05:41:48.667Z,-0.04
2022-12-03T05:44:20.912Z,-0.05
2022-12-03T05:46:52.645Z,-0.02
2022-12-03T05:49:48.388Z,-0.12
2022-12-03T05:52:20.109Z,0.31
2022-12-03T05:54:52.517Z,0.09
2022-12-03T05:57:24.626Z,0.24
2022-12-03T05:59:56.736Z,0.59
2022-12-03T06:02:28.506Z,0.31
2022-12-03T06:05:03.339Z,0.24
2022-12-03T06:07:34.967Z,-0.04
2022-12-03T06:10:08.366Z,0.12
2022-12-03T06:12:40.015Z,0.07
2022-12-03T06:15:13.386Z,-0.17
2022-12-03T06:17:45.217Z,-0.24
2022-12-03T06:20:24.555Z,-0.38
2022-12-03T06:22:56.833Z,-0.07
2022-12-03T06:25:31.095Z,-0.08
2022-12-03T06:28:26.382Z,-0.34
2022-12-03T06:30:58.643Z,-0.62
2022-12-03T06:33:32.160Z,-0.66
2022-12-03T06:36:07.412Z,-0.73
2022-12-03T06:38:40.140Z,-0.76
2022-12-03T06:41:16.536Z,-0.67
2022-12-03T06:43:49.910Z,-0.51
2022-12-03T06:46:22.375Z,-0.46
2022-12-03T06:48:55.904Z,-0.05
2022-12-03T06:51:30.820Z,0.19
2022-12-03T06:54:02.771Z,0.03
2022-12-03T06:56:40.370Z,0.19
2022-12-03T06:59:17.301Z,0.23
2022-12-03T07:01:49.806Z,-0.40
2022-12-03T07:04:22.015Z,-0.61
2022-12-03T07:06:59.924Z,-0.36
2022-12-03T07:09:33.882Z,-0.16
2022-12-03T07:12:08.829Z,0.30
2022-12-03T07:14:40.657Z,-0.19
2022-12-03T07:17:12.932Z,-0.36
2022-12-03T07:19:48.230Z,-0.15
2022-12-03T07:22:25.240Z,-0.44
2022-12-03T07:24:57.316Z,-0.47
2022-12-03T07:27:31.902Z,-0.42
2022-12-03T07:30:03.173Z,-0.01
2022-12-03T07:32:36.190Z,0.44
2022-12-03T07:35:08.283Z,-0.23
2022-12-03T07:37:43.908Z,-0.57
2022-12-03T07:40:16.515Z,-0.37
2022-12-03T07:42:48.535Z,-0.37
2022-12-03T07:45:20.113Z,-0.31
2022-12-03T07:47:52.104Z,-0.53
2022-12-03T07:50:24.105Z,-0.08
2022-12-03T07:52:59.298Z,-0.14
2022-12-03T07:55:30.898Z,-0.11
2022-12-03T07:58:02.938Z,-0.02
2022-12-03T08:00:37.120Z,-0.18
2022-12-03T08:03:09.476Z,0.08
2022-12-03T08:05:43.036Z,-0.05
2022-12-03T08:08:17.637Z,0.24
2022-12-03T08:10:49.043Z,0.00
2022-12-03T08:13:22.599Z,-0.28
2022-12-03T08:15:55.088Z,-0.52
2022-12-03T08:18:27.653Z,-0.40
2022-12-03T08:20:58.942Z,-0.48
2022-12-03T08:23:33.733Z,-0.33
2022-12-03T08:26:21.143Z,-0.30
2022-12-03T08:28:53.448Z,-0.15
2022-12-03T08:31:32.917Z,-0.40
2022-12-03T08:34:20.900Z,0.04
2022-12-03T09:02:33.090Z,0.09
2022-12-03T09:05:17.423Z,0.00
2022-12-03T09:07:50.142Z,0.35
2022-12-03T09:10:22.755Z,0.36
2022-12-03T09:12:55.537Z,0.12
2022-12-03T09:15:27.863Z,0.02
2022-12-03T09:18:03.022Z,0.51
2022-12-03T09:20:35.280Z,0.40
2022-12-03T09:23:07.864Z,0.35
2022-12-03T09:25:40.282Z,0.31
2022-12-03T09:28:12.810Z,0.74
2022-12-03T09:30:44.868Z,0.41
2022-12-03T09:33:19.703Z,0.42
2022-12-03T09:35:51.505Z,0.99
2022-12-03T09:38:23.583Z,0.50
2022-12-03T09:40:55.640Z,0.77
2022-12-03T09:43:49.448Z,1.29
2022-12-03T09:46:20.051Z,1.06
2022-12-03T09:49:20.342Z,0.96
2022-12-03T09:51:52.122Z,0.69
2022-12-03T09:54:27.189Z,1.08
2022-12-03T09:57:00.744Z,1.55
2022-12-03T09:59:35.462Z,0.83
2022-12-03T10:02:14.381Z,0.61
2022-12-03T10:04:49.957Z,0.20
2022-12-03T10:07:35.194Z,0.06
2022-12-03T10:10:10.321Z,-0.21
2022-12-03T10:12:42.925Z,-0.20
2022-12-03T10:15:17.941Z,-0.32
2022-12-03T10:17:53.044Z,-0.02
2022-12-03T10:20:29.402Z,0.03
2022-12-03T10:23:01.901Z,-0.01
2022-12-03T10:25:34.561Z,-0.11
2022-12-03T10:28:07.402Z,0.05
2022-12-03T10:30:39.872Z,0.26
2022-12-03T10:33:19.117Z,-0.05
2022-12-03T10:35:54.783Z,-0.01
2022-12-03T10:38:27.228Z,-0.09
2022-12-03T10:40:59.650Z,0.27
2022-12-03T10:43:31.962Z,-0.01
2022-12-03T10:46:16.248Z,0.09
2022-12-03T10:48:48.601Z,-0.20
2022-12-03T10:51:24.821Z,-0.07
2022-12-03T10:53:57.528Z,-0.14
2022-12-03T10:56:30.879Z,-0.21
2022-12-03T10:59:03.081Z,-0.42
2022-12-03T11:01:35.820Z,0.02
2022-12-03T11:04:08.931Z,-0.18
2022-12-03T11:06:44.747Z,0.28
2022-12-03T11:09:22.899Z,0.23
2022-12-03T11:11:56.861Z,0.28
2022-12-03T11:15:09.742Z,0.16
2022-12-03T11:17:55.920Z,0.56
2022-12-03T11:21:12.640Z,0.31
2022-12-03T11:24:23.936Z,0.56
2022-12-03T11:27:20.977Z,0.69
2022-12-03T11:30:01.947Z,-0.02
2022-12-03T11:33:09.718Z,0.12
2022-12-03T11:36:14.201Z,0.42
2022-12-03T11:38:55.083Z,0.73
2022-12-03T11:41:33.944Z,0.28
2022-12-03T11:44:33.460Z,0.45
2022-12-03T11:47:18.318Z,0.77
2022-12-03T11:49:51.607Z,0.52
2022-12-03T11:52:32.418Z,0.64
2022-12-03T11:55:08.076Z,0.70
2022-12-03T11:57:43.597Z,0.92
2022-12-03T12:00:24.677Z,0.72
2022-12-03T12:02:59.444Z,1.04
2022-12-03T12:05:34.182Z,0.82
2022-12-03T12:08:07.171Z,1.13
2022-12-03T12:10:48.388Z,1.01
2022-12-03T12:13:52.894Z,0.91
2022-12-03T12:16:41.164Z,1.26
2022-12-03T12:19:51.062Z,1.20
2022-12-03T12:22:35.517Z,1.01
2022-12-03T12:25:29.976Z,0.90
2022-12-03T12:28:02.036Z,0.90
2022-12-03T12:30:37.015Z,0.98
2022-12-03T12:33:20.404Z,0.99
2022-12-03T12:35:53.097Z,0.64
2022-12-03T12:38:25.757Z,0.54
2022-12-03T12:40:58.237Z,1.02
2022-12-03T12:43:32.940Z,0.47
2022-12-03T12:46:46.796Z,0.58
2022-12-03T12:49:14.539Z,0.59
2022-12-03T12:51:49.411Z,0.49
2022-12-03T12:54:21.636Z,0.50
2022-12-03T12:57:17.204Z,0.57
2022-12-03T13:00:19.726Z,0.85
2022-12-03T13:02:59.833Z,0.51
2022-12-03T13:05:41.174Z,0.18
2022-12-03T13:08:25.594Z,0.29
2022-12-03T13:10:59.037Z,0.20
2022-12-03T13:13:43.656Z,0.24
2022-12-03T13:16:21.607Z,0.09
2022-12-03T13:18:58.307Z,0.04
2022-12-03T13:21:40.583Z,0.27
2022-12-03T13:24:36.024Z,0.74
2022-12-03T13:27:26.194Z,1.06
2022-12-03T13:30:02.543Z,0.65
2022-12-03T13:32:37.015Z,0.23
2022-12-03T13:35:23.075Z,0.37
2022-12-03T13:37:55.576Z,0.70
2022-12-03T13:40:31.659Z,0.51
2022-12-03T13:43:07.097Z,0.11
2022-12-03T13:45:42.100Z,0.37
2022-12-03T13:48:24.878Z,0.12
2022-12-03T13:51:01.156Z,0.55
2022-12-03T13:53:40.397Z,0.24
2022-12-03T13:56:29.515Z,0.64
2022-12-03T13:59:04.714Z,0.46
2022-12-03T14:01:37.501Z,0.50
2022-12-03T14:04:09.723Z,0.39
2022-12-03T14:06:45.006Z,0.16
2022-12-03T14:09:17.566Z,0.30
2022-12-03T14:12:02.124Z,0.41
2022-12-03T14:14:34.304Z,0.48
2022-12-03T14:17:07.951Z,0.17
2022-12-03T14:19:40.186Z,0.54
2022-12-03T14:22:15.489Z,0.28
2022-12-03T14:24:47.866Z,0.27
2022-12-03T14:27:20.426Z,-0.04
2022-12-03T14:29:52.907Z,0.41
2022-12-03T14:32:25.783Z,0.24
2022-12-03T14:34:57.985Z,0.24
2022-12-03T14:37:34.239Z,0.13
2022-12-03T14:40:09.277Z,0.06
2022-12-03T14:42:42.008Z,0.04
2022-12-03T14:45:14.500Z,0.20
2022-12-03T14:47:47.298Z,0.44
2022-12-03T14:50:19.679Z,0.28
2022-12-03T14:52:55.080Z,0.22
2022-12-03T14:55:27.018Z,0.22
2022-12-03T14:57:59.108Z,0.41
2022-12-03T15:00:46.259Z,0.40
2022-12-03T15:03:18.572Z,0.08
2022-12-03T15:05:50.461Z,0.27
2022-12-03T15:08:25.886Z,0.23
2022-12-03T15:10:58.041Z,0.46
2022-12-03T15:13:30.219Z,0.61
2022-12-03T15:16:02.757Z,0.46
2022-12-03T15:18:35.054Z,0.51
2022-12-03T15:21:07.176Z,0.47
2022-12-03T15:23:42.716Z,0.28
2022-12-03T15:26:14.715Z,0.21
2022-12-03T15:28:48.509Z,0.28
2022-12-03T15:31:20.505Z,0.09
2022-12-03T15:34:03.962Z,0.53
2022-12-03T15:36:36.103Z,0.35
2022-12-03T15:39:11.094Z,0.39
2022-12-03T15:41:43.131Z,0.49
2022-12-03T15:44:15.420Z,0.49
2022-12-03T15:46:47.418Z,0.67
2022-12-03T15:49:20.414Z,0.43
2022-12-03T15:51:52.536Z,0.18
2022-12-03T15:54:27.452Z,0.15
2022-12-03T15:56:59.313Z,0.39
2022-12-03T15:59:31.572Z,0.56
2022-12-03T16:02:03.623Z,0.76
2022-12-03T16:04:35.994Z,0.63
2022-12-03T16:07:07.972Z,0.48
2022-12-03T16:09:42.873Z,0.80
2022-12-03T16:12:14.673Z,0.79
2022-12-03T16:14:47.031Z,0.72
2022-12-03T16:17:18.993Z,0.82
2022-12-03T16:19:51.519Z,0.67
2022-12-03T16:22:23.572Z,0.73
2022-12-03T16:24:58.959Z,1.25
2022-12-03T16:27:30.817Z,0.90
2022-12-03T16:30:03.151Z,1.08
2022-12-03T16:32:35.311Z,0.56
2022-12-03T16:35:08.313Z,0.49
2022-12-03T16:37:39.910Z,0.59
2022-12-03T16:40:15.694Z,0.69
2022-12-03T16:42:47.790Z,0.58
2022-12-03T16:45:51.833Z,0.68
2022-12-03T16:48:23.870Z,0.76
2022-12-03T16:50:56.972Z,0.74
2022-12-03T16:53:29.230Z,0.69
2022-12-03T16:56:04.891Z,0.91
2022-12-03T16:58:37.287Z,0.64
2022-12-03T17:01:10.241Z,0.87
2022-12-03T17:03:42.653Z,0.72
2022-12-03T17:06:15.305Z,0.62
2022-12-03T17:08:49.860Z,0.53
2022-12-03T17:11:25.563Z,0.23
2022-12-03T17:13:57.452Z,0.06
2022-12-03T17:16:29.759Z,0.17
2022-12-03T17:19:01.685Z,0.15
2022-12-03T17:21:35.233Z,0.57
2022-12-03T17:24:07.785Z,0.41
2022-12-03T17:26:44.884Z,0.57
2022-12-03T17:29:16.965Z,0.77
2022-12-03T17:31:49.412Z,0.85
2022-12-03T17:34:22.723Z,0.73
2022-12-03T17:36:54.984Z,0.74
2022-12-03T17:39:26.985Z,0.61
2022-12-03T17:42:01.970Z,0.92
2022-12-03T17:44:33.684Z,0.78
2022-12-03T17:47:05.863Z,0.86
2022-12-03T17:49:37.705Z,1.11
2022-12-03T17:52:09.806Z,1.16
2022-12-03T17:55:08.602Z,0.72
2022-12-03T17:57:36.492Z,0.91
2022-12-03T18:00:10.307Z,1.09
2022-12-03T18:02:42.964Z,1.33
2022-12-03T18:05:14.832Z,1.16
2022-12-03T18:07:47.220Z,1.15
2022-12-03T18:10:19.572Z,1.12
2022-12-03T18:12:59.881Z,0.99
2022-12-03T18:15:33.865Z,0.70
2022-12-03T18:18:06.182Z,0.69
2022-12-03T18:20:38.243Z,0.83
2022-12-03T18:23:10.508Z,0.93
2022-12-03T18:25:42.763Z,0.72
2022-12-03T18:28:17.904Z,0.51
2022-12-03T18:30:52.702Z,0.91
2022-12-03T18:33:25.425Z,0.52
2022-12-03T18:36:00.786Z,0.52
2022-12-03T18:38:34.712Z,0.81
2022-12-03T18:41:06.693Z,0.79
2022-12-03T18:43:45.950Z,0.41
2022-12-03T18:46:45.047Z,0.46
2022-12-03T18:49:12.969Z,0.60
2022-12-03T18:51:44.971Z,0.68
2022-12-03T18:54:17.730Z,0.71
2022-12-03T18:56:49.564Z,0.68
2022-12-03T18:59:24.519Z,0.79
2022-12-03T19:01:56.387Z,0.80
2022-12-03T19:04:28.854Z,1.21
2022-12-03T19:07:00.896Z,0.79
2022-12-03T19:09:33.332Z,0.82
2022-12-03T19:12:08.632Z,1.18
2022-12-03T19:14:48.471Z,1.29
2022-12-03T19:17:21.817Z,1.02
2022-12-03T19:19:54.749Z,1.26
2022-12-03T19:22:27.506Z,1.27
2022-12-03T19:25:01.150Z,1.02
2022-12-03T19:27:44.171Z,1.07
2022-12-03T19:30:19.911Z,0.91
2022-12-03T19:32:53.051Z,0.75
2022-12-03T19:35:25.611Z,0.77
2022-12-03T19:37:58.872Z,0.78
2022-12-03T19:40:32.549Z,0.62
2022-12-03T19:43:04.771Z,0.37
2022-12-03T19:45:42.278Z,0.60
2022-12-03T19:48:14.411Z,0.78
2022-12-03T19:51:02.938Z,1.08
2022-12-03T19:53:44.891Z,1.24
2022-12-03T19:56:19.832Z,1.28
2022-12-03T19:58:52.092Z,1.08
2022-12-03T20:01:29.789Z,1.13
2022-12-03T20:04:03.962Z,0.90
2022-12-03T20:06:40.792Z,0.99
2022-12-03T20:09:18.212Z,1.16
2022-12-03T20:11:55.192Z,0.66
2022-12-03T20:14:27.851Z,0.58
2022-12-03T20:17:03.512Z,0.54
2022-12-03T20:19:36.090Z,0.46
2022-12-03T20:22:08.975Z,0.78
2022-12-03T20:24:41.734Z,0.76
2022-12-03T20:27:18.260Z,0.88
2022-12-03T20:29:53.547Z,0.90
2022-12-03T20:32:28.761Z,0.87
2022-12-03T20:35:00.595Z,1.03
2022-12-03T20:37:34.135Z,1.10
2022-12-03T20:40:06.415Z,0.87
2022-12-03T20:42:38.774Z,0.76
2022-12-03T20:45:12.035Z,0.91
2022-12-03T20:47:47.135Z,0.97
2022-12-03T20:50:19.294Z,1.18
2022-12-03T20:53:16.133Z,1.41
2022-12-03T20:55:43.716Z,0.99
2022-12-03T20:58:15.794Z,0.79
2022-12-03T21:00:47.814Z,0.60
2022-12-03T21:03:22.815Z,0.94
2022-12-03T21:06:01.995Z,1.07
2022-12-03T21:08:41.410Z,0.95
2022-12-03T21:11:17.029Z,1.01
2022-12-03T21:13:49.845Z,1.06
2022-12-03T21:16:45.433Z,0.96
2022-12-03T21:19:33.402Z,1.13
2022-12-03T21:22:08.418Z,1.44
2022-12-03T21:24:49.075Z,1.68
2022-12-03T21:27:21.955Z,1.59
2022-12-03T21:29:54.304Z,1.30
2022-12-03T21:32:26.656Z,0.86
2022-12-03T21:35:01.095Z,0.92
2022-12-03T21:37:33.224Z,1.33
2022-12-03T21:40:04.934Z,1.27
2022-12-03T21:42:37.509Z,1.03
2022-12-03T21:45:10.501Z,1.17
2022-12-03T21:47:42.900Z,1.16
2022-12-03T21:50:18.455Z,1.11
2022-12-03T21:52:51.655Z,1.15
2022-12-03T21:55:23.514Z,1.36
2022-12-03T21:58:22.683Z,1.40
2022-12-03T22:00:54.921Z,1.29
2022-12-03T22:03:27.240Z,1.31
2022-12-03T22:06:02.057Z,1.26
2022-12-03T22:08:34.156Z,1.61
2022-12-03T22:11:11.299Z,1.67
2022-12-03T22:13:43.999Z,1.41
2022-12-03T22:16:18.603Z,1.41
2022-12-03T22:18:53.277Z,1.53
2022-12-03T22:21:28.276Z,1.41
2022-12-03T22:24:00.796Z,1.53
2022-12-03T22:26:35.219Z,1.34
2022-12-03T22:29:08.323Z,1.44
2022-12-03T22:31:41.036Z,1.37
2022-12-03T22:34:13.887Z,1.34
2022-12-03T22:36:48.922Z,1.28
2022-12-03T22:39:21.736Z,1.75
2022-12-03T22:41:54.822Z,1.83
2022-12-03T22:44:27.582Z,1.63
2022-12-03T22:46:59.855Z,1.84
2022-12-03T22:49:33.055Z,1.53
2022-12-03T22:52:08.075Z,1.32
2022-12-03T22:54:40.556Z,1.01
2022-12-03T22:57:12.676Z,1.11
2022-12-03T22:59:45.297Z,1.11
2022-12-03T23:02:17.596Z,1.12
2022-12-03T23:04:50.338Z,1.71
2022-12-03T23:07:25.036Z,1.49
2022-12-03T23:09:57.707Z,1.56
2022-12-03T23:12:29.595Z,1.62
2022-12-03T23:15:02.116Z,1.58
2022-12-03T23:17:33.936Z,1.82
2022-12-03T23:20:06.697Z,1.72
2022-12-03T23:22:41.081Z,1.45
2022-12-03T23:25:14.795Z,1.24
2022-12-03T23:27:47.576Z,1.39
2022-12-03T23:30:20.085Z,1.36
2022-12-03T23:32:52.056Z,1.55
2022-12-03T23:35:24.375Z,2.16
2022-12-03T23:38:05.799Z,1.66
2022-12-03T23:40:44.835Z,1.53
2022-12-03T23:43:22.452Z,1.37
2022-12-03T23:45:54.075Z,1.36
2022-12-03T23:48:25.513Z,1.73
2022-12-03T23:50:56.918Z,1.67
2022-12-03T23:53:32.565Z,1.51
2022-12-03T23:56:08.555Z,1.91
2022-12-03T23:58:39.428Z,1.67
